sensor_id;sensor_type;location;lat;lon;timestamp;temperature;humidity
38183;DHT22;23991;52.430;10.586;2023-09-19T00:17:57;18.70;74.60
38183;DHT22;23991;52.430;10.586;2023-09-19T00:20:23;18.70;74.70
38183;DHT22;23991;52.430;10.586;2023-09-19T00:22:50;18.70;74.80
38183;DHT22;23991;52.430;10.586;2023-09-19T00:25:20;18.60;74.90
38183;DHT22;23991;52.430;10.586;2023-09-19T00:27:46;18.60;75.20
38183;DHT22;23991;52.430;10.586;2023-09-19T00:30:13;18.40;75.30
38183;DHT22;23991;52.430;10.586;2023-09-19T00:32:46;18.40;75.60
38183;DHT22;23991;52.430;10.586;2023-09-19T00:35:17;18.30;75.60
38183;DHT22;23991;52.430;10.586;2023-09-19T00:37:44;18.30;75.50
38183;DHT22;23991;52.430;10.586;2023-09-19T00:40:14;18.30;75.60
38183;DHT22;23991;52.430;10.586;2023-09-19T00:42:41;18.30;75.40
38183;DHT22;23991;52.430;10.586;2023-09-19T00:45:08;18.30;75.50
38183;DHT22;23991;52.430;10.586;2023-09-19T00:47:49;18.30;75.60
38183;DHT22;23991;52.430;10.586;2023-09-19T00:50:17;18.30;76.10
38183;DHT22;23991;52.430;10.586;2023-09-19T00:52:46;18.30;76.00
38183;DHT22;23991;52.430;10.586;2023-09-19T00:55:14;18.30;76.10
38183;DHT22;23991;52.430;10.586;2023-09-19T02:12:28;17.80;76.50
38183;DHT22;23991;52.430;10.586;2023-09-19T02:14:54;17.80;76.60
38183;DHT22;23991;52.430;10.586;2023-09-19T02:51:57;17.70;76.50
38183;DHT22;23991;52.430;10.586;2023-09-19T03:18:40;17.40;76.70
38183;DHT22;23991;52.430;10.586;2023-09-19T03:42:09;17.30;76.50
38183;DHT22;23991;52.430;10.586;2023-09-19T03:45:47;17.20;76.80
38183;DHT22;23991;52.430;10.586;2023-09-19T04:02:15;17.20;76.90
38183;DHT22;23991;52.430;10.586;2023-09-19T04:04:51;17.20;76.90
38183;DHT22;23991;52.430;10.586;2023-09-19T04:07:20;17.20;76.90
38183;DHT22;23991;52.430;10.586;2023-09-19T04:09:48;17.10;77.00
38183;DHT22;23991;52.430;10.586;2023-09-19T04:12:14;17.10;76.80
38183;DHT22;23991;52.430;10.586;2023-09-19T04:14:42;17.10;76.70
38183;DHT22;23991;52.430;10.586;2023-09-19T04:17:08;17.10;76.70
38183;DHT22;23991;52.430;10.586;2023-09-19T04:19:33;17.20;76.80
38183;DHT22;23991;52.430;10.586;2023-09-19T04:21:59;17.10;76.60
38183;DHT22;23991;52.430;10.586;2023-09-19T04:24:25;17.10;76.40
38183;DHT22;23991;52.430;10.586;2023-09-19T04:26:51;17.00;76.30
38183;DHT22;23991;52.430;10.586;2023-09-19T04:29:18;17.00;76.20
38183;DHT22;23991;52.430;10.586;2023-09-19T04:31:44;17.00;76.10
38183;DHT22;23991;52.430;10.586;2023-09-19T04:34:12;17.00;75.90
38183;DHT22;23991;52.430;10.586;2023-09-19T04:36:41;17.00;75.70
38183;DHT22;23991;52.430;10.586;2023-09-19T04:39:07;17.00;75.50
38183;DHT22;23991;52.430;10.586;2023-09-19T04:41:34;16.90;74.90
38183;DHT22;23991;52.430;10.586;2023-09-19T04:44:00;16.80;74.80
38183;DHT22;23991;52.430;10.586;2023-09-19T04:46:26;16.80;74.90
38183;DHT22;23991;52.430;10.586;2023-09-19T04:48:52;16.80;74.60
38183;DHT22;23991;52.430;10.586;2023-09-19T04:51:18;16.80;74.40
38183;DHT22;23991;52.430;10.586;2023-09-19T04:53:46;16.80;74.50
38183;DHT22;23991;52.430;10.586;2023-09-19T04:56:11;16.80;74.60
38183;DHT22;23991;52.430;10.586;2023-09-19T04:58:38;16.80;74.40
38183;DHT22;23991;52.430;10.586;2023-09-19T05:01:10;16.90;74.50
38183;DHT22;23991;52.430;10.586;2023-09-19T05:03:37;16.90;74.70
38183;DHT22;23991;52.430;10.586;2023-09-19T05:06:03;16.90;75.00
38183;DHT22;23991;52.430;10.586;2023-09-19T05:08:30;16.90;75.50
38183;DHT22;23991;52.430;10.586;2023-09-19T05:10:56;16.90;75.70
38183;DHT22;23991;52.430;10.586;2023-09-19T05:13:22;16.90;75.90
38183;DHT22;23991;52.430;10.586;2023-09-19T05:15:50;16.90;75.70
38183;DHT22;23991;52.430;10.586;2023-09-19T05:18:16;16.80;75.70
38183;DHT22;23991;52.430;10.586;2023-09-19T05:20:42;16.80;75.70
38183;DHT22;23991;52.430;10.586;2023-09-19T05:23:08;17.00;75.30
38183;DHT22;23991;52.430;10.586;2023-09-19T05:25:39;17.00;75.10
38183;DHT22;23991;52.430;10.586;2023-09-19T05:28:07;17.00;74.80
38183;DHT22;23991;52.430;10.586;2023-09-19T05:30:33;17.00;74.30
38183;DHT22;23991;52.430;10.586;2023-09-19T05:33:04;17.00;74.10
38183;DHT22;23991;52.430;10.586;2023-09-19T05:35:31;17.20;73.80
38183;DHT22;23991;52.430;10.586;2023-09-19T05:37:57;17.10;73.50
38183;DHT22;23991;52.430;10.586;2023-09-19T05:40:24;17.20;73.20
38183;DHT22;23991;52.430;10.586;2023-09-19T05:42:50;17.20;73.00
38183;DHT22;23991;52.430;10.586;2023-09-19T05:45:16;17.30;72.80
38183;DHT22;23991;52.430;10.586;2023-09-19T05:47:51;17.30;72.40
38183;DHT22;23991;52.430;10.586;2023-09-19T05:50:21;17.40;72.30
38183;DHT22;23991;52.430;10.586;2023-09-19T05:52:54;17.40;71.70
38183;DHT22;23991;52.430;10.586;2023-09-19T05:55:21;17.50;71.50
38183;DHT22;23991;52.430;10.586;2023-09-19T05:57:52;17.50;71.50
38183;DHT22;23991;52.430;10.586;2023-09-19T06:00:24;17.60;71.10
38183;DHT22;23991;52.430;10.586;2023-09-19T06:02:54;17.70;70.90
38183;DHT22;23991;52.430;10.586;2023-09-19T06:05:20;17.80;70.40
38183;DHT22;23991;52.430;10.586;2023-09-19T06:07:46;17.80;70.20
38183;DHT22;23991;52.430;10.586;2023-09-19T06:10:12;17.80;70.20
38183;DHT22;23991;52.430;10.586;2023-09-19T06:12:39;17.80;70.00
38183;DHT22;23991;52.430;10.586;2023-09-19T06:15:05;17.90;69.90
38183;DHT22;23991;52.430;10.586;2023-09-19T06:17:31;18.00;69.20
38183;DHT22;23991;52.430;10.586;2023-09-19T06:19:57;18.10;69.10
38183;DHT22;23991;52.430;10.586;2023-09-19T06:22:23;18.10;68.50
38183;DHT22;23991;52.430;10.586;2023-09-19T06:24:49;18.10;68.60
38183;DHT22;23991;52.430;10.586;2023-09-19T06:27:15;18.20;68.30
38183;DHT22;23991;52.430;10.586;2023-09-19T06:29:41;18.20;67.90
38183;DHT22;23991;52.430;10.586;2023-09-19T06:32:10;18.20;67.80
38183;DHT22;23991;52.430;10.586;2023-09-19T06:34:36;18.30;67.30
38183;DHT22;23991;52.430;10.586;2023-09-19T06:37:04;18.40;67.30
38183;DHT22;23991;52.430;10.586;2023-09-19T06:39:31;18.80;66.50
38183;DHT22;23991;52.430;10.586;2023-09-19T06:41:57;19.00;65.50
38183;DHT22;23991;52.430;10.586;2023-09-19T06:44:23;19.10;64.90
38183;DHT22;23991;52.430;10.586;2023-09-19T06:46:50;19.30;64.10
38183;DHT22;23991;52.430;10.586;2023-09-19T06:49:17;19.40;63.40
38183;DHT22;23991;52.430;10.586;2023-09-19T06:51:43;19.40;63.00
38183;DHT22;23991;52.430;10.586;2023-09-19T06:54:10;19.60;62.10
38183;DHT22;23991;52.430;10.586;2023-09-19T06:56:35;19.60;62.10
38183;DHT22;23991;52.430;10.586;2023-09-19T06:59:01;19.90;61.20
38183;DHT22;23991;52.430;10.586;2023-09-19T07:01:28;20.10;60.50
38183;DHT22;23991;52.430;10.586;2023-09-19T07:03:54;20.20;59.20
38183;DHT22;23991;52.430;10.586;2023-09-19T07:06:20;20.40;58.40
38183;DHT22;23991;52.430;10.586;2023-09-19T07:08:46;20.70;56.90
38183;DHT22;23991;52.430;10.586;2023-09-19T07:11:11;20.60;57.30
38183;DHT22;23991;52.430;10.586;2023-09-19T07:13:38;20.80;57.10
38183;DHT22;23991;52.430;10.586;2023-09-19T07:16:04;21.20;55.80
38183;DHT22;23991;52.430;10.586;2023-09-19T07:18:30;21.30;55.20
38183;DHT22;23991;52.430;10.586;2023-09-19T07:20:57;21.50;54.90
38183;DHT22;23991;52.430;10.586;2023-09-19T07:23:30;21.90;53.60
38183;DHT22;23991;52.430;10.586;2023-09-19T07:26:01;22.10;52.60
38183;DHT22;23991;52.430;10.586;2023-09-19T07:28:27;22.20;52.70
38183;DHT22;23991;52.430;10.586;2023-09-19T07:30:54;22.30;52.00
38183;DHT22;23991;52.430;10.586;2023-09-19T07:33:20;22.40;51.30
38183;DHT22;23991;52.430;10.586;2023-09-19T07:35:47;22.90;51.30
38183;DHT22;23991;52.430;10.586;2023-09-19T07:38:16;22.90;50.10
38183;DHT22;23991;52.430;10.586;2023-09-19T07:40:43;22.70;50.40
38183;DHT22;23991;52.430;10.586;2023-09-19T07:43:09;23.10;49.60
38183;DHT22;23991;52.430;10.586;2023-09-19T07:45:35;23.40;49.00
38183;DHT22;23991;52.430;10.586;2023-09-19T07:48:05;23.50;48.80
38183;DHT22;23991;52.430;10.586;2023-09-19T07:50:34;24.10;48.10
38183;DHT22;23991;52.430;10.586;2023-09-19T07:53:03;24.30;46.60
38183;DHT22;23991;52.430;10.586;2023-09-19T07:55:30;24.20;46.20
38183;DHT22;23991;52.430;10.586;2023-09-19T07:57:56;24.30;46.40
38183;DHT22;23991;52.430;10.586;2023-09-19T08:00:23;24.70;45.40
38183;DHT22;23991;52.430;10.586;2023-09-19T08:02:49;24.60;45.50
38183;DHT22;23991;52.430;10.586;2023-09-19T08:05:14;24.70;44.60
38183;DHT22;23991;52.430;10.586;2023-09-19T08:07:43;24.70;45.50
38183;DHT22;23991;52.430;10.586;2023-09-19T08:10:12;24.80;44.00
38183;DHT22;23991;52.430;10.586;2023-09-19T08:12:41;25.00;44.10
38183;DHT22;23991;52.430;10.586;2023-09-19T08:15:19;25.10;43.50
38183;DHT22;23991;52.430;10.586;2023-09-19T08:17:46;25.10;42.90
38183;DHT22;23991;52.430;10.586;2023-09-19T08:20:13;25.60;42.30
38183;DHT22;23991;52.430;10.586;2023-09-19T08:22:53;25.80;41.40
38183;DHT22;23991;52.430;10.586;2023-09-19T08:25:21;26.40;41.00
38183;DHT22;23991;52.430;10.586;2023-09-19T08:27:49;26.70;39.60
38183;DHT22;23991;52.430;10.586;2023-09-19T08:30:20;26.70;38.90
38183;DHT22;23991;52.430;10.586;2023-09-19T08:32:50;26.90;39.20
38183;DHT22;23991;52.430;10.586;2023-09-19T08:35:16;27.00;38.90
38183;DHT22;23991;52.430;10.586;2023-09-19T08:37:43;26.70;39.00
38183;DHT22;23991;52.430;10.586;2023-09-19T08:40:11;27.10;38.40
38183;DHT22;23991;52.430;10.586;2023-09-19T08:42:52;27.30;38.30
38183;DHT22;23991;52.430;10.586;2023-09-19T08:45:23;27.40;38.10
38183;DHT22;23991;52.430;10.586;2023-09-19T08:48:08;27.00;38.00
38183;DHT22;23991;52.430;10.586;2023-09-19T08:50:52;26.50;38.10
38183;DHT22;23991;52.430;10.586;2023-09-19T08:55:58;26.70;38.30
38183;DHT22;23991;52.430;10.586;2023-09-19T08:58:31;26.60;38.50
38183;DHT22;23991;52.430;10.586;2023-09-19T09:01:00;26.70;38.40
38183;DHT22;23991;52.430;10.586;2023-09-19T09:03:29;26.70;38.80
38183;DHT22;23991;52.430;10.586;2023-09-19T09:05:57;26.80;39.00
38183;DHT22;23991;52.430;10.586;2023-09-19T09:08:24;26.70;38.70
38183;DHT22;23991;52.430;10.586;2023-09-19T09:10:51;26.70;38.80
38183;DHT22;23991;52.430;10.586;2023-09-19T09:13:17;26.80;37.90
38183;DHT22;23991;52.430;10.586;2023-09-19T09:15:43;27.00;37.70
38183;DHT22;23991;52.430;10.586;2023-09-19T09:18:10;27.20;37.90
38183;DHT22;23991;52.430;10.586;2023-09-19T09:20:36;27.50;36.70
38183;DHT22;23991;52.430;10.586;2023-09-19T09:23:02;27.30;36.80
38183;DHT22;23991;52.430;10.586;2023-09-19T09:28:20;27.60;37.40
38183;DHT22;23991;52.430;10.586;2023-09-19T09:30:46;27.80;37.10
38183;DHT22;23991;52.430;10.586;2023-09-19T09:33:13;28.10;36.90
38183;DHT22;23991;52.430;10.586;2023-09-19T09:35:55;28.00;36.10
38183;DHT22;23991;52.430;10.586;2023-09-19T09:38:26;28.00;36.00
38183;DHT22;23991;52.430;10.586;2023-09-19T09:40:54;27.80;35.90
38183;DHT22;23991;52.430;10.586;2023-09-19T09:48:37;28.30;34.70
38183;DHT22;23991;52.430;10.586;2023-09-19T09:51:04;28.70;34.90
38183;DHT22;23991;52.430;10.586;2023-09-19T09:53:33;28.60;35.00
38183;DHT22;23991;52.430;10.586;2023-09-19T09:58:35;28.60;35.10
38183;DHT22;23991;52.430;10.586;2023-09-19T10:01:02;28.60;34.90
38183;DHT22;23991;52.430;10.586;2023-09-19T10:03:38;28.30;36.10
38183;DHT22;23991;52.430;10.586;2023-09-19T10:06:11;28.10;35.70
38183;DHT22;23991;52.430;10.586;2023-09-19T10:09:05;28.00;35.20
38183;DHT22;23991;52.430;10.586;2023-09-19T10:11:47;28.20;35.60
38183;DHT22;23991;52.430;10.586;2023-09-19T10:14:20;27.90;35.70
38183;DHT22;23991;52.430;10.586;2023-09-19T10:16:51;27.80;36.10
38183;DHT22;23991;52.430;10.586;2023-09-19T10:19:30;28.10;35.60
38183;DHT22;23991;52.430;10.586;2023-09-19T10:22:02;28.10;35.00
38183;DHT22;23991;52.430;10.586;2023-09-19T10:24:28;28.00;35.10
38183;DHT22;23991;52.430;10.586;2023-09-19T10:26:59;27.90;35.50
38183;DHT22;23991;52.430;10.586;2023-09-19T10:29:32;27.30;36.90
38183;DHT22;23991;52.430;10.586;2023-09-19T10:32:02;27.40;36.70
38183;DHT22;23991;52.430;10.586;2023-09-19T10:34:33;27.90;36.50
38183;DHT22;23991;52.430;10.586;2023-09-19T10:37:02;27.90;36.00
38183;DHT22;23991;52.430;10.586;2023-09-19T10:39:36;27.70;35.70
38183;DHT22;23991;52.430;10.586;2023-09-19T10:42:06;27.60;35.80
38183;DHT22;23991;52.430;10.586;2023-09-19T10:44:37;27.60;35.70
38183;DHT22;23991;52.430;10.586;2023-09-19T10:47:09;27.60;35.70
38183;DHT22;23991;52.430;10.586;2023-09-19T10:49:35;27.80;35.60
38183;DHT22;23991;52.430;10.586;2023-09-19T10:52:01;27.70;35.50
38183;DHT22;23991;52.430;10.586;2023-09-19T10:54:32;27.50;36.00
38183;DHT22;23991;52.430;10.586;2023-09-19T10:57:02;27.50;35.90
38183;DHT22;23991;52.430;10.586;2023-09-19T10:59:30;27.20;36.40
38183;DHT22;23991;52.430;10.586;2023-09-19T11:02:18;27.30;36.10
38183;DHT22;23991;52.430;10.586;2023-09-19T11:04:44;27.40;36.60
38183;DHT22;23991;52.430;10.586;2023-09-19T11:07:14;27.40;36.30
38183;DHT22;23991;52.430;10.586;2023-09-19T11:09:52;27.70;35.40
38183;DHT22;23991;52.430;10.586;2023-09-19T11:14:56;27.80;36.20
38183;DHT22;23991;52.430;10.586;2023-09-19T11:17:31;27.90;36.10
38183;DHT22;23991;52.430;10.586;2023-09-19T11:33:31;29.00;33.60
38183;DHT22;23991;52.430;10.586;2023-09-19T11:49:29;29.40;33.20
38183;DHT22;23991;52.430;10.586;2023-09-19T11:52:02;29.20;33.30
38183;DHT22;23991;52.430;10.586;2023-09-19T11:54:35;28.80;33.40
38183;DHT22;23991;52.430;10.586;2023-09-19T11:57:02;28.90;33.70
38183;DHT22;23991;52.430;10.586;2023-09-19T11:59:29;28.40;33.20
38183;DHT22;23991;52.430;10.586;2023-09-19T12:01:57;28.00;34.00
38183;DHT22;23991;52.430;10.586;2023-09-19T12:07:07;28.70;33.50
38183;DHT22;23991;52.430;10.586;2023-09-19T12:09:38;28.60;33.50
38183;DHT22;23991;52.430;10.586;2023-09-19T12:12:05;28.80;33.80
38183;DHT22;23991;52.430;10.586;2023-09-19T12:14:31;28.80;32.40
38183;DHT22;23991;52.430;10.586;2023-09-19T12:16:57;28.50;33.10
38183;DHT22;23991;52.430;10.586;2023-09-19T12:19:26;28.70;33.00
38183;DHT22;23991;52.430;10.586;2023-09-19T12:22:09;29.10;33.20
38183;DHT22;23991;52.430;10.586;2023-09-19T12:24:35;29.40;32.00
38183;DHT22;23991;52.430;10.586;2023-09-19T12:27:07;29.80;31.40
38183;DHT22;23991;52.430;10.586;2023-09-19T12:29:51;30.00;30.80
38183;DHT22;23991;52.430;10.586;2023-09-19T12:32:36;30.20;30.90
38183;DHT22;23991;52.430;10.586;2023-09-19T12:35:06;30.40;29.80
38183;DHT22;23991;52.430;10.586;2023-09-19T12:37:36;30.50;30.00
38183;DHT22;23991;52.430;10.586;2023-09-19T12:40:07;30.30;30.10
38183;DHT22;23991;52.430;10.586;2023-09-19T12:42:48;30.90;29.80
38183;DHT22;23991;52.430;10.586;2023-09-19T12:45:17;31.00;29.40
38183;DHT22;23991;52.430;10.586;2023-09-19T12:51:06;30.90;29.60
38183;DHT22;23991;52.430;10.586;2023-09-19T12:53:43;31.10;29.80
38183;DHT22;23991;52.430;10.586;2023-09-19T12:56:13;31.00;29.30
38183;DHT22;23991;52.430;10.586;2023-09-19T12:58:58;30.60;30.10
38183;DHT22;23991;52.430;10.586;2023-09-19T13:01:28;30.70;30.70
38183;DHT22;23991;52.430;10.586;2023-09-19T13:06:40;31.10;29.90
38183;DHT22;23991;52.430;10.586;2023-09-19T13:09:09;30.70;29.70
38183;DHT22;23991;52.430;10.586;2023-09-19T13:11:39;30.30;30.30
38183;DHT22;23991;52.430;10.586;2023-09-19T13:14:23;30.00;30.80
38183;DHT22;23991;52.430;10.586;2023-09-19T13:16:54;30.00;30.80
38183;DHT22;23991;52.430;10.586;2023-09-19T13:19:40;29.80;30.80
38183;DHT22;23991;52.430;10.586;2023-09-19T13:22:44;29.80;31.20
38183;DHT22;23991;52.430;10.586;2023-09-19T13:25:20;30.20;30.20
38183;DHT22;23991;52.430;10.586;2023-09-19T13:27:51;30.00;30.80
38183;DHT22;23991;52.430;10.586;2023-09-19T13:30:18;29.80;30.90
38183;DHT22;23991;52.430;10.586;2023-09-19T13:32:44;29.20;31.30
38183;DHT22;23991;52.430;10.586;2023-09-19T13:35:13;29.10;31.50
38183;DHT22;23991;52.430;10.586;2023-09-19T13:37:39;29.10;31.60
38183;DHT22;23991;52.430;10.586;2023-09-19T13:40:13;29.30;31.40
38183;DHT22;23991;52.430;10.586;2023-09-19T13:42:40;29.40;31.60
38183;DHT22;23991;52.430;10.586;2023-09-19T13:45:07;29.70;30.60
38183;DHT22;23991;52.430;10.586;2023-09-19T13:47:33;30.30;30.50
38183;DHT22;23991;52.430;10.586;2023-09-19T13:50:02;30.40;30.10
38183;DHT22;23991;52.430;10.586;2023-09-19T13:52:30;30.40;30.20
38183;DHT22;23991;52.430;10.586;2023-09-19T13:54:56;30.60;30.70
38183;DHT22;23991;52.430;10.586;2023-09-19T13:57:25;30.50;30.30
38183;DHT22;23991;52.430;10.586;2023-09-19T13:59:52;30.90;30.50
38183;DHT22;23991;52.430;10.586;2023-09-19T14:02:22;31.00;29.90
38183;DHT22;23991;52.430;10.586;2023-09-19T14:04:51;30.90;29.90
38183;DHT22;23991;52.430;10.586;2023-09-19T14:07:17;31.50;29.60
38183;DHT22;23991;52.430;10.586;2023-09-19T14:09:44;31.80;28.80
38183;DHT22;23991;52.430;10.586;2023-09-19T14:12:10;31.70;28.60
38183;DHT22;23991;52.430;10.586;2023-09-19T14:14:36;31.80;28.30
38183;DHT22;23991;52.430;10.586;2023-09-19T14:17:03;31.70;28.40
38183;DHT22;23991;52.430;10.586;2023-09-19T14:19:30;31.60;28.60
38183;DHT22;23991;52.430;10.586;2023-09-19T14:21:55;31.90;28.50
38183;DHT22;23991;52.430;10.586;2023-09-19T14:24:22;32.30;28.60
38183;DHT22;23991;52.430;10.586;2023-09-19T14:26:48;32.30;27.40
38183;DHT22;23991;52.430;10.586;2023-09-19T14:29:15;31.90;28.30
38183;DHT22;23991;52.430;10.586;2023-09-19T14:31:41;32.10;27.70
38183;DHT22;23991;52.430;10.586;2023-09-19T14:34:07;31.90;28.50
38183;DHT22;23991;52.430;10.586;2023-09-19T14:36:36;32.10;28.50
38183;DHT22;23991;52.430;10.586;2023-09-19T14:39:02;31.90;28.10
38183;DHT22;23991;52.430;10.586;2023-09-19T14:41:28;31.20;28.80
38183;DHT22;23991;52.430;10.586;2023-09-19T14:43:54;31.20;28.90
38183;DHT22;23991;52.430;10.586;2023-09-19T14:46:21;31.00;29.10
38183;DHT22;23991;52.430;10.586;2023-09-19T14:48:47;31.20;28.70
38183;DHT22;23991;52.430;10.586;2023-09-19T14:51:13;31.20;28.40
38183;DHT22;23991;52.430;10.586;2023-09-19T14:53:40;31.20;28.60
38183;DHT22;23991;52.430;10.586;2023-09-19T14:56:08;31.00;28.60
38183;DHT22;23991;52.430;10.586;2023-09-19T14:58:34;31.40;28.50
38183;DHT22;23991;52.430;10.586;2023-09-19T15:01:10;31.20;29.00
38183;DHT22;23991;52.430;10.586;2023-09-19T15:03:37;31.10;29.10
38183;DHT22;23991;52.430;10.586;2023-09-19T15:06:06;31.10;29.00
38183;DHT22;23991;52.430;10.586;2023-09-19T15:08:36;31.60;28.60
38183;DHT22;23991;52.430;10.586;2023-09-19T15:11:04;31.70;28.20
38183;DHT22;23991;52.430;10.586;2023-09-19T15:13:34;32.10;28.40
38183;DHT22;23991;52.430;10.586;2023-09-19T15:16:04;31.80;27.90
38183;DHT22;23991;52.430;10.586;2023-09-19T15:18:30;31.50;27.80
38183;DHT22;23991;52.430;10.586;2023-09-19T15:21:07;31.20;28.50
38183;DHT22;23991;52.430;10.586;2023-09-19T15:23:34;30.70;28.80
38183;DHT22;23991;52.430;10.586;2023-09-19T15:26:07;30.50;29.30
38183;DHT22;23991;52.430;10.586;2023-09-19T15:28:39;30.20;29.60
38183;DHT22;23991;52.430;10.586;2023-09-19T15:31:07;29.90;30.00
38183;DHT22;23991;52.430;10.586;2023-09-19T15:33:34;29.70;30.50
38183;DHT22;23991;52.430;10.586;2023-09-19T15:36:06;29.80;30.70
38183;DHT22;23991;52.430;10.586;2023-09-19T15:41:26;29.90;30.80
38183;DHT22;23991;52.430;10.586;2023-09-19T15:43:53;29.90;31.10
38183;DHT22;23991;52.430;10.586;2023-09-19T15:46:20;29.50;31.40
38183;DHT22;23991;52.430;10.586;2023-09-19T15:48:46;29.50;31.70
38183;DHT22;23991;52.430;10.586;2023-09-19T15:51:12;29.30;31.70
38183;DHT22;23991;52.430;10.586;2023-09-19T15:53:48;28.90;32.60
38183;DHT22;23991;52.430;10.586;2023-09-19T15:56:17;28.70;33.00
38183;DHT22;23991;52.430;10.586;2023-09-19T15:58:47;28.80;32.60
38183;DHT22;23991;52.430;10.586;2023-09-19T16:01:17;28.80;32.70
38183;DHT22;23991;52.430;10.586;2023-09-19T16:03:45;29.00;32.80
38183;DHT22;23991;52.430;10.586;2023-09-19T16:06:16;28.40;33.40
38183;DHT22;23991;52.430;10.586;2023-09-19T16:08:47;28.70;33.50
38183;DHT22;23991;52.430;10.586;2023-09-19T16:11:13;28.60;33.30
38183;DHT22;23991;52.430;10.586;2023-09-19T16:13:40;28.60;33.70
38183;DHT22;23991;52.430;10.586;2023-09-19T16:16:07;28.80;33.50
38183;DHT22;23991;52.430;10.586;2023-09-19T16:18:33;28.50;33.60
38183;DHT22;23991;52.430;10.586;2023-09-19T16:21:03;28.40;33.70
38183;DHT22;23991;52.430;10.586;2023-09-19T16:23:32;28.30;33.90
38183;DHT22;23991;52.430;10.586;2023-09-19T16:26:08;28.20;34.10
38183;DHT22;23991;52.430;10.586;2023-09-19T16:28:36;28.00;34.40
38183;DHT22;23991;52.430;10.586;2023-09-19T16:31:02;27.70;34.90
38183;DHT22;23991;52.430;10.586;2023-09-19T16:33:29;27.60;35.60
38183;DHT22;23991;52.430;10.586;2023-09-19T16:35:56;27.50;35.60
38183;DHT22;23991;52.430;10.586;2023-09-19T16:38:24;27.10;36.30
38183;DHT22;23991;52.430;10.586;2023-09-19T16:40:57;26.90;36.70
38183;DHT22;23991;52.430;10.586;2023-09-19T16:43:24;26.60;37.00
38183;DHT22;23991;52.430;10.586;2023-09-19T16:45:55;26.70;37.00
38183;DHT22;23991;52.430;10.586;2023-09-19T16:48:22;26.50;37.50
38183;DHT22;23991;52.430;10.586;2023-09-19T16:50:49;26.40;37.60
38183;DHT22;23991;52.430;10.586;2023-09-19T16:53:16;26.50;37.60
38183;DHT22;23991;52.430;10.586;2023-09-19T16:55:48;26.40;37.80
38183;DHT22;23991;52.430;10.586;2023-09-19T16:58:15;26.30;38.10
38183;DHT22;23991;52.430;10.586;2023-09-19T17:00:41;26.10;38.20
38183;DHT22;23991;52.430;10.586;2023-09-19T17:03:09;25.90;38.70
38183;DHT22;23991;52.430;10.586;2023-09-19T17:05:36;25.80;38.90
38183;DHT22;23991;52.430;10.586;2023-09-19T17:08:08;25.70;38.90
38183;DHT22;23991;52.430;10.586;2023-09-19T17:10:34;25.80;38.80
38183;DHT22;23991;52.430;10.586;2023-09-19T17:13:01;25.50;39.10
38183;DHT22;23991;52.430;10.586;2023-09-19T17:15:31;25.30;39.50
38183;DHT22;23991;52.430;10.586;2023-09-19T17:17:57;25.30;39.80
38183;DHT22;23991;52.430;10.586;2023-09-19T17:20:24;25.30;39.70
38183;DHT22;23991;52.430;10.586;2023-09-19T17:22:49;25.00;40.20
38183;DHT22;23991;52.430;10.586;2023-09-19T17:25:16;24.80;40.70
38183;DHT22;23991;52.430;10.586;2023-09-19T17:27:42;24.50;41.20
38183;DHT22;23991;52.430;10.586;2023-09-19T17:30:10;24.50;41.30
38183;DHT22;23991;52.430;10.586;2023-09-19T17:32:45;24.50;41.40
38183;DHT22;23991;52.430;10.586;2023-09-19T17:35:13;24.30;41.70
38183;DHT22;23991;52.430;10.586;2023-09-19T17:37:44;24.40;41.60
38183;DHT22;23991;52.430;10.586;2023-09-19T17:40:10;24.20;41.90
38183;DHT22;23991;52.430;10.586;2023-09-19T17:42:40;24.20;42.30
38183;DHT22;23991;52.430;10.586;2023-09-19T17:45:10;24.00;42.70
38183;DHT22;23991;52.430;10.586;2023-09-19T17:47:40;23.80;42.90
38183;DHT22;23991;52.430;10.586;2023-09-19T17:50:06;23.60;43.30
38183;DHT22;23991;52.430;10.586;2023-09-19T17:52:32;23.50;43.70
38183;DHT22;23991;52.430;10.586;2023-09-19T17:54:58;23.50;43.80
38183;DHT22;23991;52.430;10.586;2023-09-19T17:57:24;23.40;44.00
38183;DHT22;23991;52.430;10.586;2023-09-19T17:59:51;23.30;44.00
38183;DHT22;23991;52.430;10.586;2023-09-19T18:02:17;23.20;44.10
38183;DHT22;23991;52.430;10.586;2023-09-19T18:04:43;23.00;44.90
38183;DHT22;23991;52.430;10.586;2023-09-19T18:07:09;23.00;44.80
38183;DHT22;23991;52.430;10.586;2023-09-19T18:09:35;22.80;45.30
38183;DHT22;23991;52.430;10.586;2023-09-19T18:12:02;22.70;45.20
38183;DHT22;23991;52.430;10.586;2023-09-19T18:14:31;22.80;45.20
38183;DHT22;23991;52.430;10.586;2023-09-19T18:16:58;22.70;45.50
38183;DHT22;23991;52.430;10.586;2023-09-19T18:19:23;22.70;45.40
38183;DHT22;23991;52.430;10.586;2023-09-19T18:21:49;22.50;45.30
38183;DHT22;23991;52.430;10.586;2023-09-19T18:24:16;22.30;46.00
38183;DHT22;23991;52.430;10.586;2023-09-19T18:26:42;22.20;46.20
38183;DHT22;23991;52.430;10.586;2023-09-19T18:29:08;22.00;46.60
38183;DHT22;23991;52.430;10.586;2023-09-19T18:31:36;21.80;46.90
38183;DHT22;23991;52.430;10.586;2023-09-19T18:34:03;21.70;47.10
38183;DHT22;23991;52.430;10.586;2023-09-19T18:36:29;21.70;47.40
38183;DHT22;23991;52.430;10.586;2023-09-19T18:38:55;21.60;47.40
38183;DHT22;23991;52.430;10.586;2023-09-19T18:41:22;21.50;47.80
38183;DHT22;23991;52.430;10.586;2023-09-19T18:43:48;21.40;47.80
38183;DHT22;23991;52.430;10.586;2023-09-19T18:46:15;21.30;47.90
38183;DHT22;23991;52.430;10.586;2023-09-19T18:48:43;21.30;47.90
38183;DHT22;23991;52.430;10.586;2023-09-19T18:51:14;21.30;48.00
38183;DHT22;23991;52.430;10.586;2023-09-19T18:53:41;21.10;48.30
38183;DHT22;23991;52.430;10.586;2023-09-19T18:56:10;21.00;48.80
38183;DHT22;23991;52.430;10.586;2023-09-19T18:58:43;20.90;48.80
38183;DHT22;23991;52.430;10.586;2023-09-19T19:01:10;20.90;48.80
38183;DHT22;23991;52.430;10.586;2023-09-19T19:03:37;20.80;48.90
38183;DHT22;23991;52.430;10.586;2023-09-19T19:06:08;20.80;48.90
38183;DHT22;23991;52.430;10.586;2023-09-19T19:08:35;20.70;49.10
38183;DHT22;23991;52.430;10.586;2023-09-19T19:11:06;20.70;49.50
38183;DHT22;23991;52.430;10.586;2023-09-19T19:13:32;20.70;49.30
38183;DHT22;23991;52.430;10.586;2023-09-19T19:15:58;20.70;49.50
38183;DHT22;23991;52.430;10.586;2023-09-19T19:18:24;20.60;49.50
38183;DHT22;23991;52.430;10.586;2023-09-19T19:21:03;20.60;49.80
38183;DHT22;23991;52.430;10.586;2023-09-19T19:23:30;20.50;50.00
38183;DHT22;23991;52.430;10.586;2023-09-19T19:25:56;20.50;50.00